Flugplatz Landeplatz Delta Club Wiehengebirge (UL)

Hier findest Du alle Informationen zum Flugplatz Landeplatz Delta Club Wiehengebirge (UL).

Informationen für Piloten zum Flugplatz Landeplatz Delta Club Wiehengebirge

Hier findest Du alle relevanten Informationen, die Du als Pilot benötigst, um Landeplatz Delta Club Wiehengebirge anzufliegen.

Flugplatz: Landeplatz Delta Club Wiehengebirge ICAO-Code: UL Flugplatz
Frequenz Turm: nicht bekan Mhz GAFOR Gebiet: -
Frequenz Ground: nicht bekan Mhz Mogas: ja
Platzrunde: N 0 ft Landegebühr: -
Platzhöhe: - Sunrise: 03:01 Uhr UTC
Pisten: 09/27 - 280 m x 30 m, GRAS Sunset: 19:52 Uhr UTC

Flugwetter am Flugplatz Landeplatz Delta Club Wiehengebirge

Die METAR Information stammen aus EDDV (59.58 km entfernt).

METAR Code:
2024/06/09 06:20
EDDV 090620Z AUTO 26008KT 220V300 CAVOK 12/07 Q1010 NOSIG

Flugschulen am Flugplatz Landeplatz Delta Club Wiehengebirge

Am Flugplatz Landeplatz Delta Club Wiehengebirge gibt es leider keine Flugschule.

Benachbarte Flugplätze und Flugschulen

Es gibt 13 weitere Flugplätze in einem Umkreis von 50 km um den Flugplatz Landeplatz Delta Club Wiehengebirge.

Jetzt anmelden

Passwort vergessen

Umfrage Archiv

Wie häufig haltet Ihr die Halbkreisflugregel ein?

Eher häufig!
36 %
Immer!
30.7 %
Hin und wieder!
16.7 %
Nie!
9.5 %
Eher selten!
7.2 %
Stimmen: 264 | Diskussion
Anzeige: Roland Aircraft
Statistik Alle Mitglieder

Aktuell sind 21 Besucher online.

Anzeige: EasyVFR